Zenica, Bosnia and Herzegovina
Current Conditions -  °F | °C
As of 2:00 AM on Saturday 22 Nov 2014 (Local Time) from LQSA Reporting Station
Haze Haze  
Wind Chill: 32°   Ceiling: Unl
Heat Index: 32°   Visibility: 3mi
Dew Point: 30°   Wind: 1mph
Humidity: 93%   Direction: NA
Pressure: 30.27"   Gusts: NA
Location:  44.2°N, 17.91°E
Report Text: LQSA 220000Z VRB01KT 5000 BR SCT035 M00/M01 Q1025
Loading
Personal Weather Stations






























Interactive Weather Map New forecast layout! Learn more

10-Day Weather Forecast

Advertisements
Track Severe Weather on mobile